Terminal Aerodrome Forecast
Issued by NWS Tampa Bay Area, FL

Home | Current Version | Previous Version | Text Only | Print | Product List | Glossary On
Versions: 1 2 3 4 5 6 7 8 9 10 11 12 13 14 15 16
243
FTUS42 KTBW 291720
TAFFMY
TAF
KFMY 291720Z 2918/3018 23006KT P6SM VCTS SCT035CB BKN100
      TEMPO 2918/2921 VRB15G20KT 4SM TSRA BKN035CB
     FM300100 VRB03KT P6SM SCT035
     FM301500 VRB03KT P6SM VCTS SCT030CB=

USA.gov is the U.S. government's official web portal to all federal, state and local government web resources and services.